sensor_id;sensor_type;location;lat;lon;timestamp;P1;durP1;ratioP1;P2;durP2;ratioP2
70457;SDS011;57919;56.194;95.716;2023-02-26T00:03:47;50.53;;;19.07;;
70457;SDS011;57919;56.194;95.716;2023-02-26T00:13:52;66.27;;;23.73;;
70457;SDS011;57919;56.194;95.716;2023-02-26T00:23:54;66.77;;;23.67;;
70457;SDS011;57919;56.194;95.716;2023-02-26T00:33:57;53.70;;;20.45;;
70457;SDS011;57919;56.194;95.716;2023-02-26T00:44:00;27.93;;;11.03;;
70457;SDS011;57919;56.194;95.716;2023-02-26T01:04:33;24.25;;;11.50;;
70457;SDS011;57919;56.194;95.716;2023-02-26T01:14:36;15.40;;;6.77;;
70457;SDS011;57919;56.194;95.716;2023-02-26T01:24:39;22.23;;;9.40;;
70457;SDS011;57919;56.194;95.716;2023-02-26T01:34:44;16.48;;;6.72;;
70457;SDS011;57919;56.194;95.716;2023-02-26T01:55:20;6.23;;;2.77;;
70457;SDS011;57919;56.194;95.716;2023-02-26T02:05:26;14.13;;;6.83;;
70457;SDS011;57919;56.194;95.716;2023-02-26T02:15:37;12.05;;;4.65;;
70457;SDS011;57919;56.194;95.716;2023-02-26T02:36:10;15.60;;;7.07;;
70457;SDS011;57919;56.194;95.716;2023-02-26T02:46:19;8.65;;;3.95;;
70457;SDS011;57919;56.194;95.716;2023-02-26T02:56:26;5.03;;;2.23;;
70457;SDS011;57919;56.194;95.716;2023-02-26T03:06:35;19.80;;;5.67;;
70457;SDS011;57919;56.194;95.716;2023-02-26T03:27:15;15.10;;;6.93;;
70457;SDS011;57919;56.194;95.716;2023-02-26T03:47:50;9.37;;;2.60;;
70457;SDS011;57919;56.194;95.716;2023-02-26T03:57:56;10.77;;;5.05;;
70457;SDS011;57919;56.194;95.716;2023-02-26T04:08:19;11.57;;;5.60;;
70457;SDS011;57919;56.194;95.716;2023-02-26T04:18:23;15.00;;;6.57;;
70457;SDS011;57919;56.194;95.716;2023-02-26T04:28:25;18.38;;;6.75;;
70457;SDS011;57919;56.194;95.716;2023-02-26T04:38:27;19.30;;;7.60;;
70457;SDS011;57919;56.194;95.716;2023-02-26T04:48:31;16.57;;;5.07;;
70457;SDS011;57919;56.194;95.716;2023-02-26T04:58:33;12.23;;;4.43;;
70457;SDS011;57919;56.194;95.716;2023-02-26T05:08:41;8.30;;;3.03;;
70457;SDS011;57919;56.194;95.716;2023-02-26T05:18:43;11.03;;;3.07;;
70457;SDS011;57919;56.194;95.716;2023-02-26T05:28:46;12.40;;;3.97;;
70457;SDS011;57919;56.194;95.716;2023-02-26T05:38:49;19.30;;;4.85;;
70457;SDS011;57919;56.194;95.716;2023-02-26T05:48:51;8.73;;;2.77;;
70457;SDS011;57919;56.194;95.716;2023-02-26T05:58:53;6.57;;;2.13;;
70457;SDS011;57919;56.194;95.716;2023-02-26T06:08:55;8.57;;;4.43;;
70457;SDS011;57919;56.194;95.716;2023-02-26T06:18:57;7.47;;;2.90;;
70457;SDS011;57919;56.194;95.716;2023-02-26T06:28:59;25.23;;;3.47;;
70457;SDS011;57919;56.194;95.716;2023-02-26T06:39:02;10.77;;;2.92;;
70457;SDS011;57919;56.194;95.716;2023-02-26T06:49:04;6.43;;;2.27;;
70457;SDS011;57919;56.194;95.716;2023-02-26T06:59:06;18.13;;;4.93;;
70457;SDS011;57919;56.194;95.716;2023-02-26T07:09:08;15.70;;;3.00;;
70457;SDS011;57919;56.194;95.716;2023-02-26T07:19:10;4.50;;;1.90;;
70457;SDS011;57919;56.194;95.716;2023-02-26T07:29:12;6.83;;;3.13;;
70457;SDS011;57919;56.194;95.716;2023-02-26T07:39:14;12.63;;;4.73;;
70457;SDS011;57919;56.194;95.716;2023-02-26T07:49:16;9.75;;;4.00;;
70457;SDS011;57919;56.194;95.716;2023-02-26T07:59:18;9.43;;;3.83;;
70457;SDS011;57919;56.194;95.716;2023-02-26T08:09:20;5.80;;;2.40;;
70457;SDS011;57919;56.194;95.716;2023-02-26T08:19:22;12.80;;;5.18;;
70457;SDS011;57919;56.194;95.716;2023-02-26T08:29:24;9.47;;;3.70;;
70457;SDS011;57919;56.194;95.716;2023-02-26T08:39:27;10.70;;;3.63;;
70457;SDS011;57919;56.194;95.716;2023-02-26T08:49:28;10.10;;;3.33;;
70457;SDS011;57919;56.194;95.716;2023-02-26T08:59:30;11.18;;;3.92;;
70457;SDS011;57919;56.194;95.716;2023-02-26T09:09:32;9.87;;;3.97;;
70457;SDS011;57919;56.194;95.716;2023-02-26T09:19:35;7.23;;;2.93;;
70457;SDS011;57919;56.194;95.716;2023-02-26T09:29:37;12.32;;;5.43;;
70457;SDS011;57919;56.194;95.716;2023-02-26T09:39:39;6.23;;;1.63;;
70457;SDS011;57919;56.194;95.716;2023-02-26T10:21:50;19.37;;;6.40;;
70457;SDS011;57919;56.194;95.716;2023-02-26T10:32:20;33.47;;;9.30;;
70457;SDS011;57919;56.194;95.716;2023-02-26T10:42:46;19.73;;;7.32;;
70457;SDS011;57919;56.194;95.716;2023-02-26T10:52:53;8.50;;;3.23;;
70457;SDS011;57919;56.194;95.716;2023-02-26T11:02:56;16.23;;;6.00;;
70457;SDS011;57919;56.194;95.716;2023-02-26T11:12:58;46.30;;;16.73;;
70457;SDS011;57919;56.194;95.716;2023-02-26T11:23:01;9.53;;;4.70;;
70457;SDS011;57919;56.194;95.716;2023-02-26T11:33:13;17.17;;;4.40;;
70457;SDS011;57919;56.194;95.716;2023-02-26T11:43:19;14.25;;;6.03;;
70457;SDS011;57919;56.194;95.716;2023-02-26T12:03:37;11.87;;;3.97;;
70457;SDS011;57919;56.194;95.716;2023-02-26T12:24:09;19.13;;;8.80;;
70457;SDS011;57919;56.194;95.716;2023-02-26T12:55:09;13.27;;;4.30;;
70457;SDS011;57919;56.194;95.716;2023-02-26T13:15:43;30.00;;;11.80;;
70457;SDS011;57919;56.194;95.716;2023-02-26T13:25:54;40.42;;;16.08;;
70457;SDS011;57919;56.194;95.716;2023-02-26T13:36:00;136.07;;;54.60;;
70457;SDS011;57919;56.194;95.716;2023-02-26T14:06:37;55.50;;;21.13;;
70457;SDS011;57919;56.194;95.716;2023-02-26T14:16:42;32.13;;;12.77;;
70457;SDS011;57919;56.194;95.716;2023-02-26T14:26:47;20.40;;;10.27;;
70457;SDS011;57919;56.194;95.716;2023-02-26T14:37:09;8.95;;;4.50;;
70457;SDS011;57919;56.194;95.716;2023-02-26T14:47:15;6.07;;;3.13;;
70457;SDS011;57919;56.194;95.716;2023-02-26T15:08:07;14.25;;;6.57;;
70457;SDS011;57919;56.194;95.716;2023-02-26T15:28:36;56.10;;;28.10;;
70457;SDS011;57919;56.194;95.716;2023-02-26T15:38:42;29.33;;;11.73;;
70457;SDS011;57919;56.194;95.716;2023-02-26T15:48:47;21.33;;;9.05;;
70457;SDS011;57919;56.194;95.716;2023-02-26T15:58:51;70.40;;;29.80;;
70457;SDS011;57919;56.194;95.716;2023-02-26T16:09:03;95.80;;;41.70;;
70457;SDS011;57919;56.194;95.716;2023-02-26T16:19:08;79.38;;;27.35;;
70457;SDS011;57919;56.194;95.716;2023-02-26T16:29:16;60.63;;;26.40;;
70457;SDS011;57919;56.194;95.716;2023-02-26T16:39:23;65.27;;;24.37;;
70457;SDS011;57919;56.194;95.716;2023-02-26T16:49:34;99.97;;;33.92;;
70457;SDS011;57919;56.194;95.716;2023-02-26T16:59:38;140.95;;;42.58;;
70457;SDS011;57919;56.194;95.716;2023-02-26T17:09:46;92.97;;;31.77;;
70457;SDS011;57919;56.194;95.716;2023-02-26T17:19:51;138.83;;;51.13;;
70457;SDS011;57919;56.194;95.716;2023-02-26T17:29:53;61.42;;;21.42;;
70457;SDS011;57919;56.194;95.716;2023-02-26T17:39:55;89.23;;;35.73;;
70457;SDS011;57919;56.194;95.716;2023-02-26T17:50:00;28.53;;;11.27;;
70457;SDS011;57919;56.194;95.716;2023-02-26T18:00:03;58.20;;;24.58;;
70457;SDS011;57919;56.194;95.716;2023-02-26T18:10:06;35.80;;;13.47;;
70457;SDS011;57919;56.194;95.716;2023-02-26T18:20:14;30.93;;;10.30;;
70457;SDS011;57919;56.194;95.716;2023-02-26T18:30:30;82.30;;;24.42;;
70457;SDS011;57919;56.194;95.716;2023-02-26T18:40:34;36.43;;;12.87;;
70457;SDS011;57919;56.194;95.716;2023-02-26T18:50:36;22.63;;;9.03;;
70457;SDS011;57919;56.194;95.716;2023-02-26T19:00:38;20.83;;;7.07;;
70457;SDS011;57919;56.194;95.716;2023-02-26T19:10:40;18.73;;;6.80;;
70457;SDS011;57919;56.194;95.716;2023-02-26T19:20:42;18.17;;;5.73;;
70457;SDS011;57919;56.194;95.716;2023-02-26T19:30:44;24.83;;;8.53;;
70457;SDS011;57919;56.194;95.716;2023-02-26T19:40:46;23.75;;;8.23;;
70457;SDS011;57919;56.194;95.716;2023-02-26T19:50:48;30.10;;;9.40;;
70457;SDS011;57919;56.194;95.716;2023-02-26T20:00:52;20.67;;;8.77;;
70457;SDS011;57919;56.194;95.716;2023-02-26T20:10:54;31.00;;;9.32;;
70457;SDS011;57919;56.194;95.716;2023-02-26T20:20:59;14.73;;;5.90;;
70457;SDS011;57919;56.194;95.716;2023-02-26T20:31:03;14.67;;;6.43;;
70457;SDS011;57919;56.194;95.716;2023-02-26T20:41:05;11.17;;;4.40;;
70457;SDS011;57919;56.194;95.716;2023-02-26T20:51:07;10.10;;;4.72;;
70457;SDS011;57919;56.194;95.716;2023-02-26T21:01:12;14.90;;;4.23;;
70457;SDS011;57919;56.194;95.716;2023-02-26T21:11:14;15.47;;;5.80;;
70457;SDS011;57919;56.194;95.716;2023-02-26T21:21:16;6.45;;;1.80;;
70457;SDS011;57919;56.194;95.716;2023-02-26T21:31:18;10.97;;;3.53;;
70457;SDS011;57919;56.194;95.716;2023-02-26T21:41:22;3.77;;;1.07;;
70457;SDS011;57919;56.194;95.716;2023-02-26T21:51:24;8.43;;;2.80;;
70457;SDS011;57919;56.194;95.716;2023-02-26T22:01:26;9.55;;;3.28;;
70457;SDS011;57919;56.194;95.716;2023-02-26T22:11:28;62.67;;;22.90;;
70457;SDS011;57919;56.194;95.716;2023-02-26T22:21:30;52.20;;;17.97;;
70457;SDS011;57919;56.194;95.716;2023-02-26T22:31:32;37.58;;;14.55;;
70457;SDS011;57919;56.194;95.716;2023-02-26T22:41:34;86.83;;;25.20;;
70457;SDS011;57919;56.194;95.716;2023-02-26T22:51:36;55.20;;;19.90;;
70457;SDS011;57919;56.194;95.716;2023-02-26T23:01:38;72.85;;;26.30;;
70457;SDS011;57919;56.194;95.716;2023-02-26T23:11:40;93.27;;;30.67;;
70457;SDS011;57919;56.194;95.716;2023-02-26T23:21:42;246.77;;;69.53;;
70457;SDS011;57919;56.194;95.716;2023-02-26T23:31:44;194.40;;;62.28;;
70457;SDS011;57919;56.194;95.716;2023-02-26T23:41:46;52.15;;;19.92;;
70457;SDS011;57919;56.194;95.716;2023-02-26T23:51:48;66.90;;;26.60;;
